Time;durP1;ratioP1;P1;durP2;ratioP2;P2;SDS_P1;SDS_P2;PMS_P1;PMS_P2;Temp;Humidity;BMP_temperature;BMP_pressure;BME280_temperature;BME280_humidity;BME280_pressure;Samples;Min_cycle;Max_cycle;Signal;HPM_P1;HPM_P2
2022/07/28 00:01:50;;;;;;;;;3.75;3.75;;;;;;;;5052161;28;45881;-65
2022/07/28 00:04:16;;;;;;;;;3.00;3.00;;;;;;;;5053385;28;45356;-65
2022/07/28 00:06:41;;;;;;;;;4.00;4.00;;;;;;;;5053844;28;45378;-64
2022/07/28 00:09:06;;;;;;;;;4.25;3.00;;;;;;;;5052965;28;45362;-64
2022/07/28 00:11:31;;;;;;;;;3.00;3.00;;;;;;;;5052013;28;46050;-64
2022/07/28 00:13:56;;;;;;;;;4.25;3.25;;;;;;;;5053295;28;45421;-64
2022/07/28 00:16:22;;;;;;;;;4.50;4.50;;;;;;;;5051986;28;45356;-65
2022/07/28 00:18:47;;;;;;;;;4.00;4.00;;;;;;;;5053440;28;45428;-64
2022/07/28 00:21:12;;;;;;;;;5.00;4.00;;;;;;;;5053163;28;45385;-65
2022/07/28 00:23:38;;;;;;;;;4.00;4.00;;;;;;;;5052020;28;45398;-65
2022/07/28 00:26:03;;;;;;;;;4.00;3.00;;;;;;;;5053303;28;45837;-64
2022/07/28 00:28:28;;;;;;;;;3.50;3.50;;;;;;;;5053372;28;45354;-65
2022/07/28 00:30:56;;;;;;;;;4.00;4.00;;;;;;;;5053019;28;46524;-63
2022/07/28 00:33:22;;;;;;;;;6.00;6.00;;;;;;;;5053128;28;45348;-64
2022/07/28 00:35:47;;;;;;;;;7.25;5.00;;;;;;;;5052896;28;45442;-64
2022/07/28 00:38:12;;;;;;;;;5.00;5.00;;;;;;;;5051895;28;45455;-64
2022/07/28 00:43:22;;;;;;;;;5.50;5.00;;;;;;;;5053124;28;45776;-64
2022/07/28 00:45:47;;;;;;;;;5.25;5.00;;;;;;;;5053023;28;45433;-64
2022/07/28 00:48:12;;;;;;;;;8.25;5.75;;;;;;;;5053005;28;45447;-64
2022/07/28 00:50:38;;;;;;;;;8.50;6.75;;;;;;;;5052753;28;46146;-65
2022/07/28 00:53:04;;;;;;;;;7.00;6.00;;;;;;;;5052799;28;45580;-65
2022/07/28 00:55:29;;;;;;;;;5.25;4.25;;;;;;;;5052885;28;45307;-64
2022/07/28 00:57:55;;;;;;;;;13.00;8.25;;;;;;;;5052807;28;45292;-64
2022/07/28 01:00:20;;;;;;;;;10.50;9.50;;;;;;;;5052731;28;46874;-64
2022/07/28 01:02:45;;;;;;;;;10.25;9.50;;;;;;;;5052628;28;45545;-64
2022/07/28 01:05:13;;;;;;;;;3.50;3.50;;;;;;;;5052757;28;45528;-64
2022/07/28 01:07:47;;;;;;;;;6.00;6.00;;;;;;;;5052753;28;45460;-64
2022/07/28 01:10:23;;;;;;;;;5.00;5.00;;;;;;;;5052396;28;45769;-64
2022/07/28 01:12:57;;;;;;;;;5.50;5.50;;;;;;;;5052490;28;45637;-64
2022/07/28 01:15:29;;;;;;;;;8.50;6.75;;;;;;;;5052580;28;45454;-64
2022/07/28 01:18:06;;;;;;;;;4.75;4.50;;;;;;;;5052506;28;45338;-65
2022/07/28 01:20:37;;;;;;;;;8.50;7.00;;;;;;;;5051273;28;45772;-64
2022/07/28 01:23:11;;;;;;;;;8.00;6.75;;;;;;;;5052264;28;45587;-65
2022/07/28 01:25:48;;;;;;;;;4.00;4.00;;;;;;;;5052466;28;45462;-64
2022/07/28 01:28:19;;;;;;;;;6.00;6.00;;;;;;;;5052302;28;45359;-64
2022/07/28 01:30:46;;;;;;;;;6.50;6.00;;;;;;;;5052332;28;46152;-65
2022/07/28 01:33:11;;;;;;;;;5.00;3.50;;;;;;;;5052295;28;45279;-64
2022/07/28 01:35:42;;;;;;;;;3.50;3.00;;;;;;;;5052137;28;45763;-64
2022/07/28 01:38:08;;;;;;;;;2.75;2.75;;;;;;;;5052321;28;45446;-65
2022/07/28 01:40:35;;;;;;;;;3.00;2.00;;;;;;;;5050597;28;46520;-65
2022/07/28 01:43:01;;;;;;;;;3.00;3.00;;;;;;;;5052097;28;45435;-64
2022/07/28 01:45:27;;;;;;;;;3.50;3.50;;;;;;;;5052402;28;45352;-64
2022/07/28 01:47:53;;;;;;;;;3.75;1.75;;;;;;;;5050707;28;45385;-65
2022/07/28 01:50:19;;;;;;;;;3.50;3.50;;;;;;;;5051964;28;46633;-64
2022/07/28 01:52:46;;;;;;;;;2.75;2.75;;;;;;;;5052152;28;45317;-65
2022/07/28 01:55:12;;;;;;;;;1.50;1.50;;;;;;;;5052205;28;45393;-65
2022/07/28 01:57:37;;;;;;;;;2.00;2.00;;;;;;;;5051977;28;45791;-65
2022/07/28 02:00:05;;;;;;;;;2.25;2.25;;;;;;;;5050539;28;48354;-65
2022/07/28 02:02:32;;;;;;;;;2.00;2.00;;;;;;;;5052100;27;45416;-65
2022/07/28 02:04:57;;;;;;;;;1.75;1.75;;;;;;;;5051985;28;45417;-64
2022/07/28 02:07:23;;;;;;;;;2.50;1.50;;;;;;;;5052002;28;45454;-64
2022/07/28 02:09:49;;;;;;;;;4.50;3.50;;;;;;;;5051809;28;46759;-66
2022/07/28 02:12:17;;;;;;;;;1.50;1.50;;;;;;;;5052029;28;45605;-65
2022/07/28 02:14:43;;;;;;;;;2.00;2.00;;;;;;;;5051755;28;45466;-64
2022/07/28 02:17:10;;;;;;;;;1.50;1.50;;;;;;;;5051833;28;45634;-64
2022/07/28 02:19:36;;;;;;;;;2.50;1.25;;;;;;;;5051589;28;45477;-64
2022/07/28 02:22:02;;;;;;;;;1.75;1.75;;;;;;;;5051831;28;45305;-64
2022/07/28 02:24:28;;;;;;;;;2.00;2.00;;;;;;;;5051948;28;45334;-64
2022/07/28 02:27:04;;;;;;;;;1.00;1.00;;;;;;;;5051711;28;45287;-64
2022/07/28 02:29:31;;;;;;;;;3.00;2.00;;;;;;;;5050220;28;48736;-65
2022/07/28 02:32:01;;;;;;;;;3.25;2.00;;;;;;;;5049901;28;45684;-63
2022/07/28 02:34:26;;;;;;;;;1.75;1.75;;;;;;;;5051622;28;45465;-64
2022/07/28 02:36:59;;;;;;;;;1.25;1.00;;;;;;;;5051229;28;45474;-64
2022/07/28 02:39:27;;;;;;;;;1.00;1.00;;;;;;;;5051578;28;46761;-65
2022/07/28 02:42:16;;;;;;;;;1.25;1.25;;;;;;;;5050205;28;45336;-65
2022/07/28 02:44:43;;;;;;;;;4.25;2.75;;;;;;;;5039369;28;45460;-65
2022/07/28 02:47:10;;;;;;;;;2.00;2.00;;;;;;;;5051440;28;45391;-65
2022/07/28 02:49:36;;;;;;;;;1.75;1.00;;;;;;;;5051068;28;46949;-65
2022/07/28 02:52:02;;;;;;;;;4.75;3.75;;;;;;;;5051288;28;46064;-64
2022/07/28 02:54:28;;;;;;;;;2.75;2.75;;;;;;;;5050142;28;45285;-64
2022/07/28 02:56:55;;;;;;;;;2.75;2.75;;;;;;;;5051235;28;45568;-65
2022/07/28 02:59:22;;;;;;;;;2.00;2.00;;;;;;;;5051098;28;45695;-65
2022/07/28 03:01:48;;;;;;;;;1.50;1.50;;;;;;;;5051112;28;45525;-63
2022/07/28 03:04:14;;;;;;;;;3.50;3.00;;;;;;;;5051090;28;45399;-64
2022/07/28 03:06:40;;;;;;;;;4.00;2.75;;;;;;;;5051077;28;45435;-64
2022/07/28 03:09:07;;;;;;;;;2.00;2.00;;;;;;;;5050851;28;48246;-65
2022/07/28 03:11:32;;;;;;;;;1.00;1.00;;;;;;;;5050967;28;45367;-64
2022/07/28 03:13:57;;;;;;;;;2.00;2.00;;;;;;;;5049450;28;45289;-65
2022/07/28 03:16:23;;;;;;;;;2.75;2.25;;;;;;;;5049629;28;45432;-65
2022/07/28 03:18:48;;;;;;;;;1.50;1.50;;;;;;;;5050720;28;46432;-65
2022/07/28 03:21:13;;;;;;;;;2.75;2.00;;;;;;;;5050909;28;45424;-64
2022/07/28 03:23:41;;;;;;;;;0.75;0.75;;;;;;;;5051032;28;45349;-65
2022/07/28 03:26:29;;;;;;;;;1.25;1.25;;;;;;;;5050729;28;45439;-64
2022/07/28 03:28:55;;;;;;;;;1.75;1.75;;;;;;;;5050505;28;46565;-64
2022/07/28 03:31:20;;;;;;;;;1.00;1.00;;;;;;;;5050614;28;45365;-65
2022/07/28 03:33:46;;;;;;;;;2.00;2.00;;;;;;;;5050744;28;45314;-65
2022/07/28 03:36:14;;;;;;;;;1.75;1.75;;;;;;;;5050602;28;45669;-63
2022/07/28 03:38:44;;;;;;;;;2.75;1.50;;;;;;;;5050603;28;46747;-63
2022/07/28 03:41:10;;;;;;;;;0.50;0.50;;;;;;;;5050375;28;45449;-63
2022/07/28 03:43:36;;;;;;;;;2.00;2.00;;;;;;;;5051580;28;45421;-64
2022/07/28 03:46:02;;;;;;;;;1.00;1.00;;;;;;;;5053866;28;45330;-65
2022/07/28 03:48:30;;;;;;;;;1.00;1.00;;;;;;;;5053603;28;45966;-64
2022/07/28 03:50:55;;;;;;;;;2.50;2.00;;;;;;;;5053343;28;45453;-64
2022/07/28 03:53:25;;;;;;;;;1.00;1.00;;;;;;;;5052317;28;45508;-65
2022/07/28 03:55:50;;;;;;;;;1.75;1.75;;;;;;;;5053635;28;45418;-65
2022/07/28 03:58:19;;;;;;;;;2.00;2.00;;;;;;;;5053237;28;45793;-65
2022/07/28 04:00:45;;;;;;;;;1.75;1.75;;;;;;;;5053633;28;45388;-65
2022/07/28 04:03:10;;;;;;;;;1.00;1.00;;;;;;;;5052356;28;45320;-64
2022/07/28 04:05:35;;;;;;;;;0.00;0.00;;;;;;;;5053624;28;45702;-65
2022/07/28 04:08:00;;;;;;;;;1.50;1.50;;;;;;;;5053417;28;46369;-65
2022/07/28 04:10:25;;;;;;;;;1.00;1.00;;;;;;;;5053408;28;45716;-64
2022/07/28 04:12:51;;;;;;;;;1.00;1.00;;;;;;;;5053418;28;45400;-64
2022/07/28 04:15:17;;;;;;;;;1.00;1.00;;;;;;;;5053495;28;45639;-64
2022/07/28 04:17:43;;;;;;;;;1.75;1.25;;;;;;;;5051738;28;47373;-64
2022/07/28 04:20:08;;;;;;;;;2.75;1.00;;;;;;;;5051941;28;45724;-64
2022/07/28 04:22:33;;;;;;;;;2.00;1.00;;;;;;;;5053482;28;45346;-63
2022/07/28 04:25:00;;;;;;;;;1.00;1.00;;;;;;;;5053255;28;45398;-64
2022/07/28 04:27:25;;;;;;;;;3.00;1.75;;;;;;;;5053138;28;46590;-64
2022/07/28 04:29:51;;;;;;;;;1.00;1.00;;;;;;;;5053046;28;45789;-64
2022/07/28 04:32:16;;;;;;;;;2.25;2.00;;;;;;;;5053115;28;45734;-64
2022/07/28 04:34:41;;;;;;;;;1.50;1.50;;;;;;;;5053319;28;45344;-64
2022/07/28 04:37:07;;;;;;;;;2.00;2.00;;;;;;;;5052736;28;46254;-64
2022/07/28 04:39:32;;;;;;;;;3.50;1.25;;;;;;;;5052825;28;45403;-62
2022/07/28 04:41:58;;;;;;;;;1.00;1.00;;;;;;;;5052758;28;45416;-63
2022/07/28 04:44:23;;;;;;;;;1.00;1.00;;;;;;;;5053020;28;45520;-64
2022/07/28 04:46:48;;;;;;;;;2.75;1.75;;;;;;;;5052812;28;46493;-64
2022/07/28 04:49:13;;;;;;;;;2.50;2.50;;;;;;;;5051401;28;45359;-63
2022/07/28 04:51:38;;;;;;;;;2.00;2.00;;;;;;;;5052840;28;45345;-64
2022/07/28 04:54:04;;;;;;;;;1.75;1.75;;;;;;;;5052979;28;45394;-64
2022/07/28 04:56:29;;;;;;;;;3.00;2.00;;;;;;;;5052593;28;47335;-64
2022/07/28 04:58:54;;;;;;;;;1.00;1.00;;;;;;;;5052866;28;45401;-64
2022/07/28 05:01:20;;;;;;;;;2.00;2.00;;;;;;;;5052730;28;45405;-65
2022/07/28 05:03:45;;;;;;;;;1.50;1.50;;;;;;;;5037991;28;45540;-65
2022/07/28 05:06:11;;;;;;;;;3.00;3.00;;;;;;;;5032555;28;45704;-64
2022/07/28 05:08:36;;;;;;;;;3.75;3.50;;;;;;;;5032583;28;45405;-65
2022/07/28 05:11:01;;;;;;;;;4.00;2.50;;;;;;;;5032715;28;45507;-66
2022/07/28 05:13:26;;;;;;;;;3.00;3.00;;;;;;;;5036785;28;45440;-63
2022/07/28 05:15:52;;;;;;;;;3.00;3.00;;;;;;;;5039059;28;46436;-65
2022/07/28 05:18:17;;;;;;;;;3.00;3.00;;;;;;;;5032269;28;45391;-66
2022/07/28 05:20:42;;;;;;;;;2.25;2.25;;;;;;;;5032589;28;45388;-65
2022/07/28 05:23:08;;;;;;;;;2.25;1.25;;;;;;;;5031387;28;45361;-65
2022/07/28 05:25:33;;;;;;;;;2.50;2.50;;;;;;;;5036379;28;45689;-65
2022/07/28 05:27:58;;;;;;;;;2.25;2.25;;;;;;;;5038310;28;45420;-64
2022/07/28 05:30:24;;;;;;;;;3.00;2.75;;;;;;;;5051368;28;45344;-65
2022/07/28 05:32:49;;;;;;;;;3.50;3.00;;;;;;;;5034589;28;45595;-65
2022/07/28 05:35:15;;;;;;;;;2.25;2.25;;;;;;;;5052118;28;46574;-65
2022/07/28 05:37:41;;;;;;;;;1.25;1.25;;;;;;;;5045626;27;46209;-65
2022/07/28 05:40:13;;;;;;;;;2.00;2.00;;;;;;;;5036840;28;45309;-66
2022/07/28 05:42:39;;;;;;;;;2.75;2.75;;;;;;;;5032385;28;45429;-66
2022/07/28 05:45:06;;;;;;;;;1.00;1.00;;;;;;;;5030629;28;47866;-67
2022/07/28 05:47:38;;;;;;;;;1.75;1.75;;;;;;;;5030788;28;45718;-66
2022/07/28 05:50:04;;;;;;;;;2.00;2.00;;;;;;;;5032136;28;45426;-67
2022/07/28 05:52:31;;;;;;;;;2.50;2.50;;;;;;;;5032074;28;45402;-66
2022/07/28 05:54:56;;;;;;;;;2.50;1.50;;;;;;;;5037995;28;46294;-66
2022/07/28 05:57:22;;;;;;;;;2.50;2.50;;;;;;;;5035010;28;45311;-66
2022/07/28 05:59:47;;;;;;;;;2.00;2.00;;;;;;;;5037365;28;45609;-67
2022/07/28 06:02:12;;;;;;;;;2.50;2.50;;;;;;;;5051295;28;45315;-67
2022/07/28 06:04:37;;;;;;;;;5.00;3.00;;;;;;;;5049296;28;47078;-63
2022/07/28 06:07:02;;;;;;;;;2.50;2.00;;;;;;;;5038695;28;45629;-65
2022/07/28 06:09:28;;;;;;;;;2.50;2.50;;;;;;;;5035937;28;45549;-63
2022/07/28 06:11:53;;;;;;;;;2.00;2.00;;;;;;;;5035529;28;45390;-64
2022/07/28 06:14:18;;;;;;;;;4.25;3.00;;;;;;;;5038321;28;46626;-65
2022/07/28 06:16:43;;;;;;;;;2.75;2.75;;;;;;;;5038831;28;45317;-64
2022/07/28 06:19:09;;;;;;;;;3.25;3.25;;;;;;;;5047290;28;45281;-65
2022/07/28 06:21:34;;;;;;;;;4.25;3.00;;;;;;;;5038082;28;45441;-65
2022/07/28 06:23:59;;;;;;;;;5.00;3.00;;;;;;;;5033490;28;46716;-65
2022/07/28 06:26:24;;;;;;;;;3.75;3.75;;;;;;;;5040352;28;45478;-65
2022/07/28 06:28:49;;;;;;;;;2.50;2.25;;;;;;;;5031752;28;45345;-66
2022/07/28 06:31:15;;;;;;;;;3.50;3.50;;;;;;;;5033850;28;45987;-65
2022/07/28 06:33:40;;;;;;;;;3.75;3.75;;;;;;;;5031367;28;46335;-64
2022/07/28 06:36:05;;;;;;;;;4.00;3.00;;;;;;;;5029144;28;45496;-64
2022/07/28 06:38:31;;;;;;;;;3.25;3.00;;;;;;;;5031567;28;45618;-64
2022/07/28 06:40:57;;;;;;;;;3.25;2.25;;;;;;;;5030928;28;45454;-64
2022/07/28 06:43:22;;;;;;;;;4.50;3.50;;;;;;;;5029889;28;46511;-64
2022/07/28 06:45:50;;;;;;;;;3.50;1.75;;;;;;;;5031325;28;45422;-65
2022/07/28 06:48:15;;;;;;;;;2.75;2.75;;;;;;;;5031470;28;45403;-65
2022/07/28 06:50:40;;;;;;;;;4.50;3.00;;;;;;;;5031208;28;45528;-64
2022/07/28 06:53:06;;;;;;;;;2.00;2.00;;;;;;;;5031177;28;45544;-64
2022/07/28 06:55:31;;;;;;;;;3.00;2.00;;;;;;;;5031244;28;45448;-64
2022/07/28 06:57:57;;;;;;;;;2.50;2.00;;;;;;;;5029868;28;45405;-65
2022/07/28 07:00:22;;;;;;;;;3.50;2.50;;;;;;;;5031127;28;45527;-64
2022/07/28 07:02:47;;;;;;;;;4.00;2.75;;;;;;;;5029483;28;48872;-63
2022/07/28 07:05:12;;;;;;;;;4.00;3.00;;;;;;;;5031062;28;45281;-64
2022/07/28 07:07:38;;;;;;;;;2.25;1.75;;;;;;;;5031232;28;45517;-64
2022/07/28 07:10:03;;;;;;;;;2.25;2.25;;;;;;;;5031035;28;45363;-65
2022/07/28 07:12:30;;;;;;;;;3.00;3.00;;;;;;;;5029532;28;46944;-64
2022/07/28 07:14:56;;;;;;;;;3.00;2.75;;;;;;;;5030470;28;45382;-64
2022/07/28 07:17:21;;;;;;;;;3.75;3.75;;;;;;;;5030975;28;45475;-65
2022/07/28 07:19:46;;;;;;;;;4.00;3.00;;;;;;;;5033357;28;45500;-65
2022/07/28 07:22:14;;;;;;;;;5.25;3.75;;;;;;;;5033901;28;46526;-64
2022/07/28 07:24:39;;;;;;;;;3.25;3.25;;;;;;;;5032473;28;46163;-65
2022/07/28 07:27:05;;;;;;;;;3.50;3.50;;;;;;;;5048554;28;45354;-64
2022/07/28 07:29:30;;;;;;;;;3.25;3.25;;;;;;;;5054206;28;45444;-65
2022/07/28 07:31:57;;;;;;;;;3.00;3.00;;;;;;;;5054165;28;47074;-63
2022/07/28 07:34:22;;;;;;;;;4.00;4.00;;;;;;;;5054030;28;45522;-64
2022/07/28 07:36:47;;;;;;;;;4.00;4.00;;;;;;;;5053880;28;45347;-64
2022/07/28 07:39:12;;;;;;;;;6.50;5.25;;;;;;;;5054055;28;45284;-65
2022/07/28 07:41:38;;;;;;;;;3.25;3.25;;;;;;;;5053760;28;46979;-64
2022/07/28 07:44:03;;;;;;;;;5.75;4.50;;;;;;;;5052434;28;46118;-65
2022/07/28 07:46:28;;;;;;;;;3.50;3.50;;;;;;;;5052557;28;45488;-65
2022/07/28 07:48:53;;;;;;;;;4.00;4.00;;;;;;;;5052426;28;45328;-65
2022/07/28 07:51:18;;;;;;;;;2.75;2.75;;;;;;;;5053445;28;45452;-65
2022/07/28 07:53:43;;;;;;;;;5.50;5.00;;;;;;;;5053573;28;45442;-65
2022/07/28 07:56:09;;;;;;;;;4.50;4.50;;;;;;;;5053324;28;45326;-65
2022/07/28 07:58:35;;;;;;;;;5.75;4.25;;;;;;;;5053843;28;45281;-65
2022/07/28 08:01:00;;;;;;;;;5.50;5.25;;;;;;;;5053495;28;46137;-65
2022/07/28 08:03:25;;;;;;;;;4.25;4.25;;;;;;;;5052308;28;45391;-66
2022/07/28 08:05:54;;;;;;;;;4.50;3.25;;;;;;;;5054323;28;45558;-64
2022/07/28 08:08:19;;;;;;;;;3.50;3.50;;;;;;;;5054624;28;45386;-64
2022/07/28 08:10:44;;;;;;;;;6.25;5.25;;;;;;;;5053469;28;46692;-65
2022/07/28 08:13:10;;;;;;;;;3.00;3.00;;;;;;;;5053300;28;45441;-65
2022/07/28 08:15:35;;;;;;;;;4.00;4.00;;;;;;;;5053567;28;45422;-65
2022/07/28 08:18:01;;;;;;;;;5.00;4.00;;;;;;;;5053342;28;45441;-65
2022/07/28 08:20:26;;;;;;;;;4.50;4.50;;;;;;;;5053153;28;46835;-64
2022/07/28 08:22:52;;;;;;;;;4.00;4.00;;;;;;;;5053181;28;45372;-66
2022/07/28 08:25:17;;;;;;;;;5.75;5.00;;;;;;;;5053407;28;45407;-65
2022/07/28 08:27:43;;;;;;;;;4.00;4.00;;;;;;;;5053273;28;45341;-65
2022/07/28 08:30:08;;;;;;;;;10.25;6.75;;;;;;;;5052997;28;45756;-66
2022/07/28 08:32:34;;;;;;;;;6.75;4.50;;;;;;;;5053171;28;45434;-65
2022/07/28 08:34:59;;;;;;;;;5.00;3.50;;;;;;;;5053103;28;45419;-65
2022/07/28 08:37:24;;;;;;;;;3.25;3.25;;;;;;;;5053290;28;45451;-65
2022/07/28 08:39:49;;;;;;;;;5.00;4.00;;;;;;;;5052971;28;47291;-65
2022/07/28 08:42:17;;;;;;;;;5.25;5.25;;;;;;;;5053030;28;45388;-65
2022/07/28 08:44:48;;;;;;;;;4.25;4.00;;;;;;;;5053149;28;45318;-66
2022/07/28 08:47:14;;;;;;;;;4.00;4.00;;;;;;;;5053252;28;45350;-65
2022/07/28 08:49:41;;;;;;;;;5.00;3.75;;;;;;;;5052870;28;45391;-65
2022/07/28 08:52:08;;;;;;;;;4.00;3.00;;;;;;;;5052938;28;45426;-66
2022/07/28 08:54:34;;;;;;;;;6.00;6.00;;;;;;;;5051770;28;45566;-65
2022/07/28 08:56:59;;;;;;;;;6.00;5.50;;;;;;;;5053006;28;45721;-65
2022/07/28 08:59:25;;;;;;;;;4.75;4.75;;;;;;;;5052772;28;46546;-65
2022/07/28 09:01:51;;;;;;;;;4.75;4.75;;;;;;;;5052762;28;45376;-65
2022/07/28 09:04:18;;;;;;;;;5.00;4.75;;;;;;;;5052973;28;45429;-65
2022/07/28 09:06:43;;;;;;;;;4.25;4.00;;;;;;;;5052950;28;45588;-64
2022/07/28 09:09:08;;;;;;;;;5.00;5.00;;;;;;;;5052649;28;47352;-65
2022/07/28 09:11:37;;;;;;;;;5.75;4.25;;;;;;;;5051334;28;45435;-64
2022/07/28 09:14:02;;;;;;;;;4.75;4.00;;;;;;;;5051703;28;45461;-65
2022/07/28 09:16:28;;;;;;;;;4.00;4.00;;;;;;;;5051264;28;45356;-64
2022/07/28 09:18:53;;;;;;;;;3.25;3.00;;;;;;;;5052630;28;45565;-65
2022/07/28 09:21:18;;;;;;;;;4.00;3.25;;;;;;;;5052641;28;45564;-65
2022/07/28 09:23:44;;;;;;;;;5.25;3.50;;;;;;;;5053002;28;45855;-65
2022/07/28 09:26:10;;;;;;;;;4.00;3.50;;;;;;;;5052462;28;45406;-65
2022/07/28 09:29:06;;;;;;;;;5.00;4.00;;;;;;;;5052445;28;46459;-65
2022/07/28 09:31:31;;;;;;;;;4.00;4.00;;;;;;;;5039415;28;45547;-65
2022/07/28 09:33:59;;;;;;;;;4.00;4.00;;;;;;;;5052393;28;45311;-66
2022/07/28 09:36:25;;;;;;;;;1.75;1.75;;;;;;;;5052388;28;45250;-65
2022/07/28 09:38:50;;;;;;;;;2.00;2.00;;;;;;;;5052054;28;47970;-65
2022/07/28 09:41:18;;;;;;;;;3.00;3.00;;;;;;;;5051425;28;45568;-66
2022/07/28 09:43:44;;;;;;;;;4.00;3.00;;;;;;;;5052619;28;45307;-65
2022/07/28 09:46:14;;;;;;;;;3.00;2.00;;;;;;;;5052282;28;45472;-65
2022/07/28 09:48:48;;;;;;;;;5.00;3.00;;;;;;;;5050058;28;46062;-65
2022/07/28 09:51:14;;;;;;;;;4.25;2.25;;;;;;;;5052648;28;45402;-66
2022/07/28 09:53:39;;;;;;;;;2.75;2.75;;;;;;;;5050932;28;45507;-65
2022/07/28 09:56:05;;;;;;;;;5.00;2.50;;;;;;;;5052068;28;45319;-65
2022/07/28 09:58:31;;;;;;;;;3.25;2.00;;;;;;;;5052030;28;46605;-65
2022/07/28 10:01:08;;;;;;;;;1.50;1.50;;;;;;;;5052040;28;45490;-64
2022/07/28 10:03:37;;;;;;;;;4.50;3.00;;;;;;;;5052245;28;45410;-65
2022/07/28 10:06:10;;;;;;;;;1.00;1.00;;;;;;;;5051834;28;45415;-65
2022/07/28 10:09:01;;;;;;;;;2.25;2.25;;;;;;;;5051804;28;47444;-65
2022/07/28 10:11:27;;;;;;;;;1.00;1.00;;;;;;;;5048699;28;45416;-65
2022/07/28 10:13:54;;;;;;;;;0.50;0.50;;;;;;;;5033975;28;45773;-66
2022/07/28 10:16:20;;;;;;;;;1.00;1.00;;;;;;;;5051849;28;45532;-66
2022/07/28 10:18:46;;;;;;;;;2.00;2.00;;;;;;;;5051573;28;46324;-65
2022/07/28 10:21:14;;;;;;;;;1.75;1.75;;;;;;;;5051900;28;45356;-65
2022/07/28 10:23:40;;;;;;;;;1.75;1.75;;;;;;;;5051845;28;45394;-65
2022/07/28 10:26:08;;;;;;;;;2.50;2.50;;;;;;;;5051699;28;45430;-65
2022/07/28 10:28:35;;;;;;;;;0.50;0.50;;;;;;;;5051589;28;45427;-66
2022/07/28 10:31:00;;;;;;;;;2.25;2.00;;;;;;;;5051684;28;45346;-66
2022/07/28 10:33:28;;;;;;;;;2.00;2.00;;;;;;;;5051904;28;45654;-65
2022/07/28 10:35:54;;;;;;;;;2.00;2.00;;;;;;;;5051786;28;45420;-65
2022/07/28 10:38:20;;;;;;;;;2.00;1.75;;;;;;;;5051456;28;46326;-65
2022/07/28 10:40:46;;;;;;;;;2.00;2.00;;;;;;;;5051520;28;45486;-65
2022/07/28 10:43:12;;;;;;;;;0.75;0.75;;;;;;;;5051503;28;45409;-66
2022/07/28 10:45:37;;;;;;;;;1.75;1.75;;;;;;;;5051703;28;45515;-66
2022/07/28 10:48:04;;;;;;;;;3.00;2.50;;;;;;;;5051301;28;46460;-65
2022/07/28 10:50:29;;;;;;;;;1.75;1.75;;;;;;;;5051216;28;45440;-65
2022/07/28 10:52:55;;;;;;;;;2.00;2.00;;;;;;;;5052675;28;45429;-65
2022/07/28 10:55:27;;;;;;;;;1.75;0.00;;;;;;;;5054418;28;45516;-65
2022/07/28 10:58:07;;;;;;;;;2.50;2.50;;;;;;;;5054047;28;46486;-65
2022/07/28 11:00:34;;;;;;;;;2.50;2.50;;;;;;;;5054229;28;45408;-65
2022/07/28 11:03:00;;;;;;;;;2.00;2.00;;;;;;;;5054347;28;45404;-65
2022/07/28 11:05:38;;;;;;;;;2.50;2.50;;;;;;;;5054163;28;45420;-66
2022/07/28 11:08:04;;;;;;;;;1.75;1.75;;;;;;;;5054012;28;46398;-65
2022/07/28 11:10:41;;;;;;;;;1.00;1.00;;;;;;;;5052811;28;45426;-65
2022/07/28 11:13:06;;;;;;;;;5.00;3.00;;;;;;;;5054513;28;45668;-66
2022/07/28 11:15:33;;;;;;;;;3.00;3.00;;;;;;;;5054253;28;45369;-65
2022/07/28 11:18:06;;;;;;;;;2.25;2.25;;;;;;;;5054066;28;45692;-65
2022/07/28 11:20:50;;;;;;;;;1.00;1.00;;;;;;;;5054023;28;45400;-65
2022/07/28 11:23:34;;;;;;;;;1.50;1.50;;;;;;;;5052705;28;45412;-65
2022/07/28 11:26:17;;;;;;;;;2.00;0.75;;;;;;;;5053986;28;45460;-65
2022/07/28 11:29:07;;;;;;;;;2.00;2.00;;;;;;;;5053997;28;46539;-64
2022/07/28 11:31:47;;;;;;;;;2.75;2.75;;;;;;;;5053784;28;45409;-65
2022/07/28 11:34:35;;;;;;;;;2.75;2.75;;;;;;;;5052749;28;46199;-65
2022/07/28 11:37:01;;;;;;;;;2.00;2.00;;;;;;;;5053096;28;45462;-65
2022/07/28 11:39:26;;;;;;;;;3.50;2.50;;;;;;;;5053673;28;45885;-65
2022/07/28 11:41:52;;;;;;;;;2.25;2.00;;;;;;;;5053788;28;45384;-65
2022/07/28 11:44:24;;;;;;;;;1.50;1.50;;;;;;;;5053866;28;45363;-64
2022/07/28 11:46:50;;;;;;;;;2.25;2.25;;;;;;;;5053797;28;45516;-65
2022/07/28 11:49:16;;;;;;;;;1.75;1.75;;;;;;;;5052180;28;46442;-65
2022/07/28 11:52:01;;;;;;;;;1.75;1.75;;;;;;;;5053608;28;45423;-64
2022/07/28 11:54:26;;;;;;;;;2.75;2.75;;;;;;;;5053448;28;45475;-65
2022/07/28 11:57:02;;;;;;;;;3.00;3.00;;;;;;;;5053511;28;45320;-64
2022/07/28 11:59:38;;;;;;;;;1.00;1.00;;;;;;;;5053566;28;46051;-65
2022/07/28 12:02:03;;;;;;;;;3.00;3.00;;;;;;;;5053531;28;45489;-65
2022/07/28 12:04:28;;;;;;;;;1.50;1.00;;;;;;;;5052879;28;45469;-65
2022/07/28 12:06:54;;;;;;;;;1.50;1.50;;;;;;;;5052408;28;45318;-65
2022/07/28 12:09:27;;;;;;;;;2.00;2.00;;;;;;;;5052027;28;46808;-65
2022/07/28 12:11:54;;;;;;;;;1.75;1.75;;;;;;;;5053494;28;45290;-65
2022/07/28 12:14:21;;;;;;;;;2.00;2.00;;;;;;;;5053743;28;45324;-66
2022/07/28 12:16:49;;;;;;;;;1.75;1.00;;;;;;;;5053197;28;45449;-67
2022/07/28 12:19:14;;;;;;;;;2.25;2.00;;;;;;;;5053327;28;46339;-65
2022/07/28 12:21:53;;;;;;;;;1.25;1.25;;;;;;;;5053235;28;45655;-65
2022/07/28 12:24:25;;;;;;;;;1.75;1.75;;;;;;;;5052202;28;45543;-66
2022/07/28 12:26:50;;;;;;;;;1.00;1.00;;;;;;;;5053338;28;45381;-65
2022/07/28 12:29:16;;;;;;;;;1.25;1.25;;;;;;;;5053154;28;46187;-64
2022/07/28 12:31:52;;;;;;;;;3.00;2.00;;;;;;;;5052042;28;45413;-65
2022/07/28 12:34:18;;;;;;;;;2.25;2.25;;;;;;;;5053375;28;45392;-65
2022/07/28 12:36:43;;;;;;;;;1.50;1.00;;;;;;;;5051399;28;45398;-65
2022/07/28 12:39:08;;;;;;;;;2.00;1.25;;;;;;;;5053107;28;45904;-65
2022/07/28 12:41:35;;;;;;;;;2.00;2.00;;;;;;;;5052854;28;45351;-64
2022/07/28 12:44:02;;;;;;;;;1.00;1.00;;;;;;;;5053441;28;45441;-66
2022/07/28 12:46:27;;;;;;;;;0.50;0.50;;;;;;;;5053134;28;45361;-65
2022/07/28 12:48:56;;;;;;;;;1.50;0.50;;;;;;;;5052749;28;45517;-65
2022/07/28 12:51:44;;;;;;;;;3.00;2.00;;;;;;;;5051757;28;45599;-66
2022/07/28 12:54:10;;;;;;;;;1.00;1.00;;;;;;;;5052809;28;45450;-66
2022/07/28 12:56:45;;;;;;;;;1.00;1.00;;;;;;;;5052900;28;45322;-65
2022/07/28 12:59:13;;;;;;;;;0.25;0.25;;;;;;;;5052719;28;45732;-64
2022/07/28 13:01:46;;;;;;;;;0.50;0.50;;;;;;;;5051482;28;45452;-65
2022/07/28 13:04:11;;;;;;;;;2.00;1.00;;;;;;;;5051509;28;45412;-66
2022/07/28 13:06:36;;;;;;;;;1.75;1.75;;;;;;;;5052879;28;45444;-64
2022/07/28 13:09:02;;;;;;;;;0.50;0.50;;;;;;;;5052768;28;45503;-64
2022/07/28 13:11:30;;;;;;;;;1.00;1.00;;;;;;;;5051365;28;45359;-65
2022/07/28 13:13:56;;;;;;;;;2.00;2.00;;;;;;;;5052917;28;45441;-66
2022/07/28 13:16:22;;;;;;;;;2.00;2.00;;;;;;;;5051619;28;45432;-65
2022/07/28 13:18:50;;;;;;;;;1.50;1.50;;;;;;;;5052580;28;45871;-64
2022/07/28 13:21:15;;;;;;;;;1.75;1.75;;;;;;;;5052493;28;45457;-64
2022/07/28 13:23:41;;;;;;;;;1.75;1.75;;;;;;;;5051523;28;45725;-65
2022/07/28 13:26:06;;;;;;;;;1.00;1.00;;;;;;;;5052679;28;45386;-65
2022/07/28 13:28:31;;;;;;;;;2.00;2.00;;;;;;;;5052439;28;46879;-65
2022/07/28 13:30:57;;;;;;;;;1.25;1.25;;;;;;;;5052515;28;45392;-65
2022/07/28 13:33:22;;;;;;;;;2.00;2.00;;;;;;;;5051248;28;45700;-65
2022/07/28 13:35:49;;;;;;;;;1.00;1.00;;;;;;;;5052358;28;45411;-65
2022/07/28 13:38:14;;;;;;;;;1.50;1.50;;;;;;;;5052257;28;45406;-64
2022/07/28 13:40:39;;;;;;;;;2.00;2.00;;;;;;;;5052077;28;45683;-65
2022/07/28 13:43:06;;;;;;;;;2.00;2.00;;;;;;;;5051190;28;45410;-65
2022/07/28 13:45:32;;;;;;;;;3.25;1.00;;;;;;;;5052475;28;45401;-64
2022/07/28 13:47:57;;;;;;;;;1.50;1.50;;;;;;;;5052261;28;45507;-64
2022/07/28 13:50:22;;;;;;;;;1.00;1.00;;;;;;;;5052206;28;45270;-64
2022/07/28 13:52:47;;;;;;;;;3.00;2.00;;;;;;;;5051025;28;45341;-66
2022/07/28 13:55:13;;;;;;;;;3.50;3.50;;;;;;;;5052439;28;45330;-65
2022/07/28 13:57:38;;;;;;;;;1.50;1.50;;;;;;;;5051789;28;45302;-65
2022/07/28 14:00:05;;;;;;;;;1.75;1.75;;;;;;;;5052145;28;45294;-65
2022/07/28 14:02:31;;;;;;;;;1.25;1.25;;;;;;;;5052377;28;45559;-64
2022/07/28 14:04:56;;;;;;;;;2.25;1.00;;;;;;;;5052080;28;45386;-64
2022/07/28 14:07:21;;;;;;;;;2.50;1.75;;;;;;;;5051743;28;46242;-64
2022/07/28 14:09:49;;;;;;;;;1.50;1.50;;;;;;;;5051841;28;45535;-65
2022/07/28 14:12:14;;;;;;;;;3.50;3.00;;;;;;;;5051985;28;45520;-64
2022/07/28 14:14:39;;;;;;;;;1.00;1.00;;;;;;;;5050607;28;45327;-65
2022/07/28 14:17:05;;;;;;;;;2.50;2.50;;;;;;;;5050062;28;46547;-65
2022/07/28 14:19:31;;;;;;;;;3.25;3.25;;;;;;;;5051602;28;45571;-64
2022/07/28 14:21:57;;;;;;;;;5.75;5.50;;;;;;;;5051762;28;45418;-65
2022/07/28 14:24:22;;;;;;;;;27.75;26.50;;;;;;;;5051492;28;45371;-65
2022/07/28 14:26:47;;;;;;;;;3.00;3.00;;;;;;;;5051135;28;45582;-64
2022/07/28 14:29:13;;;;;;;;;5.50;5.50;;;;;;;;5051724;28;45340;-64
2022/07/28 14:31:38;;;;;;;;;3.75;3.00;;;;;;;;5051915;28;45286;-64
2022/07/28 14:34:03;;;;;;;;;2.75;2.75;;;;;;;;5051779;28;45403;-64
2022/07/28 14:36:29;;;;;;;;;30.50;28.50;;;;;;;;5051230;28;46220;-64
2022/07/28 14:38:55;;;;;;;;;4.75;4.50;;;;;;;;5051718;28;45555;-64
2022/07/28 14:41:21;;;;;;;;;1.25;1.25;;;;;;;;5051547;28;45369;-64
2022/07/28 14:43:46;;;;;;;;;2.75;2.75;;;;;;;;5051507;28;45397;-65
2022/07/28 14:46:11;;;;;;;;;2.00;2.00;;;;;;;;5051403;28;45768;-64